createdAt,value
2023-04-16T00:00:51.862Z,37.83
2023-04-16T00:03:25.187Z,37.83
2023-04-16T00:06:00.803Z,35.95
2023-04-16T00:08:38.906Z,36.00
2023-04-16T00:11:12.337Z,36.58
2023-04-16T00:13:47.383Z,30.92
2023-04-16T00:16:20.780Z,34.53
2023-04-16T00:18:54.077Z,34.80
2023-04-16T00:21:29.651Z,33.30
2023-04-16T00:24:03.212Z,33.35
2023-04-16T00:26:36.388Z,34.05
2023-04-16T00:29:09.866Z,31.63
2023-04-16T00:31:43.588Z,32.85
2023-04-16T00:34:19.527Z,31.70
2023-04-16T00:36:55.427Z,33.10
2023-04-16T00:39:28.899Z,32.22
2023-04-16T00:42:02.119Z,29.90
2023-04-16T00:44:37.515Z,32.72
2023-04-16T00:47:15.019Z,33.17
2023-04-16T00:49:51.584Z,31.77
2023-04-16T00:52:27.194Z,31.27
2023-04-16T00:55:02.452Z,31.80
2023-04-16T00:57:36.793Z,30.55
2023-04-16T01:00:11.001Z,29.85
2023-04-16T01:02:44.809Z,32.75
2023-04-16T01:05:18.265Z,30.38
2023-04-16T01:07:56.309Z,33.45
2023-04-16T01:10:29.255Z,32.17
2023-04-16T01:13:02.824Z,29.95
2023-04-16T01:15:36.549Z,32.03
2023-04-16T01:18:18.978Z,31.67
2023-04-16T01:20:55.407Z,33.75
2023-04-16T01:23:29.004Z,31.35
2023-04-16T01:26:02.162Z,31.25
2023-04-16T01:28:35.490Z,32.78
2023-04-16T01:31:09.271Z,29.48
2023-04-16T01:33:55.606Z,34.42
2023-04-16T01:36:31.088Z,32.22
2023-04-16T01:39:04.643Z,33.42
2023-04-16T01:41:38.214Z,32.47
2023-04-16T01:44:11.853Z,34.17
2023-04-16T01:46:45.448Z,31.75
2023-04-16T01:49:18.431Z,33.28
2023-04-16T01:51:53.342Z,34.75
2023-04-16T01:54:27.158Z,33.58
2023-04-16T01:56:59.958Z,33.75
2023-04-16T01:59:34.579Z,35.30
2023-04-16T02:02:15.612Z,32.67
2023-04-16T02:04:50.100Z,33.90
2023-04-16T02:07:25.683Z,34.97
2023-04-16T02:09:59.762Z,31.33
2023-04-16T02:12:34.170Z,31.73
2023-04-16T02:15:11.535Z,33.15
2023-04-16T02:20:52.605Z,30.85
2023-04-16T02:23:29.462Z,33.97
2023-04-16T02:26:07.245Z,36.03
2023-04-16T02:28:40.532Z,33.75
2023-04-16T02:31:16.431Z,33.97
2023-04-16T02:33:50.644Z,32.30
2023-04-16T02:36:25.593Z,30.42
2023-04-16T02:39:00.469Z,30.67
2023-04-16T02:41:33.636Z,27.83
2023-04-16T02:44:07.235Z,29.75
2023-04-16T02:46:41.224Z,28.15
2023-04-16T02:49:15.602Z,29.17
2023-04-16T02:51:51.593Z,27.00
2023-04-16T02:54:24.739Z,26.88
2023-04-16T02:56:58.364Z,25.42
2023-04-16T02:59:31.691Z,22.40
2023-04-16T03:02:05.267Z,22.80
2023-04-16T03:04:39.074Z,20.63
2023-04-16T03:07:14.944Z,16.50
2023-04-16T03:09:48.365Z,19.80
2023-04-16T03:12:21.315Z,18.75
2023-04-16T03:14:56.041Z,18.48
2023-04-16T03:17:29.685Z,20.67
2023-04-16T03:20:03.557Z,20.33
2023-04-16T03:22:38.560Z,20.38
2023-04-16T03:25:12.748Z,19.40
2023-04-16T03:27:45.629Z,19.90
2023-04-16T03:30:20.219Z,19.95
2023-04-16T03:32:53.878Z,19.60
2023-04-16T03:35:27.249Z,20.08
2023-04-16T03:38:02.853Z,23.40
2023-04-16T03:40:36.023Z,23.00
2023-04-16T03:43:10.473Z,22.20
2023-04-16T03:45:49.044Z,21.00
2023-04-16T03:48:23.885Z,21.17
2023-04-16T03:50:57.187Z,23.35
2023-04-16T03:53:32.955Z,24.23
2023-04-16T03:56:08.156Z,21.58
2023-04-16T03:58:41.300Z,20.77
2023-04-16T04:01:19.680Z,23.55
2023-04-16T04:03:53.192Z,22.60
2023-04-16T04:06:26.550Z,26.50
2023-04-16T04:09:01.610Z,24.60
2023-04-16T04:11:38.036Z,24.80
2023-04-16T04:14:11.241Z,25.38
2023-04-16T04:16:45.400Z,23.00
2023-04-16T04:19:18.858Z,23.27
2023-04-16T04:21:52.896Z,22.45
2023-04-16T04:24:28.896Z,22.33
2023-04-16T04:27:03.475Z,22.75
2023-04-16T04:29:41.113Z,24.25
2023-04-16T04:32:14.268Z,20.60
2023-04-16T04:34:47.442Z,21.98
2023-04-16T04:37:21.435Z,20.90
2023-04-16T04:39:59.235Z,20.55
2023-04-16T04:42:33.609Z,21.02
2023-04-16T04:45:07.357Z,20.70
2023-04-16T04:47:41.637Z,21.02
2023-04-16T04:50:16.541Z,18.30
2023-04-16T04:52:49.899Z,17.85
2023-04-16T04:55:26.234Z,18.17
2023-04-16T04:57:59.279Z,18.50
2023-04-16T05:00:32.780Z,20.98
2023-04-16T05:03:09.740Z,23.15
2023-04-16T05:05:45.048Z,22.85
2023-04-16T05:08:19.132Z,25.17
2023-04-16T05:10:56.401Z,26.13
2023-04-16T05:13:30.409Z,24.33
2023-04-16T05:16:05.748Z,23.63
2023-04-16T05:18:38.862Z,26.20
2023-04-16T05:21:11.705Z,26.23
2023-04-16T05:23:45.264Z,23.60
2023-04-16T05:26:21.358Z,22.73
2023-04-16T05:28:55.043Z,24.35
2023-04-16T05:31:28.276Z,21.48
2023-04-16T05:34:01.422Z,22.30
2023-04-16T05:36:34.271Z,20.80
2023-04-16T05:39:07.660Z,21.33
2023-04-16T05:41:42.708Z,20.38
2023-04-16T05:44:18.705Z,20.65
2023-04-16T05:46:51.927Z,21.73
2023-04-16T05:49:25.177Z,20.55
2023-04-16T05:51:58.452Z,22.23
2023-04-16T05:54:31.561Z,22.50
2023-04-16T05:57:07.090Z,24.88
2023-04-16T05:59:39.887Z,25.38
2023-04-16T06:02:13.618Z,23.27
2023-04-16T06:04:47.951Z,24.27
2023-04-16T06:07:20.884Z,24.80
2023-04-16T06:09:54.279Z,24.50
2023-04-16T06:12:29.544Z,24.63
2023-04-16T06:15:03.747Z,23.73
2023-04-16T06:17:37.112Z,23.15
2023-04-16T06:20:11.465Z,23.38
2023-04-16T06:22:47.226Z,24.05
2023-04-16T06:25:22.056Z,23.33
2023-04-16T06:28:00.904Z,25.25
2023-04-16T06:30:35.090Z,25.17
2023-04-16T06:33:08.025Z,22.17
2023-04-16T06:35:41.308Z,23.05
2023-04-16T06:38:14.598Z,22.70
2023-04-16T06:40:47.936Z,22.80
2023-04-16T06:43:23.371Z,23.15
2023-04-16T06:45:56.551Z,20.70
2023-04-16T06:48:29.339Z,22.98
2023-04-16T06:51:03.560Z,23.05
2023-04-16T06:56:22.960Z,20.02
2023-04-16T06:59:00.353Z,22.85
2023-04-16T07:01:37.880Z,19.85
2023-04-16T07:04:15.188Z,21.60
2023-04-16T07:06:49.242Z,20.77
2023-04-16T07:09:22.909Z,20.63
2023-04-16T07:12:01.210Z,21.50
2023-04-16T07:14:37.469Z,20.33
2023-04-16T07:17:10.274Z,20.25
2023-04-16T07:19:45.998Z,22.63
2023-04-16T07:22:19.319Z,21.73
2023-04-16T07:24:52.813Z,21.33
2023-04-16T07:27:26.238Z,22.30
2023-04-16T07:30:02.772Z,21.58
2023-04-16T07:32:37.022Z,20.92
2023-04-16T07:35:10.845Z,21.67
2023-04-16T07:37:43.990Z,21.52
2023-04-16T07:40:17.109Z,23.13
2023-04-16T07:42:50.379Z,22.85
2023-04-16T07:45:27.438Z,22.10
2023-04-16T07:48:02.885Z,21.02
2023-04-16T07:50:36.362Z,21.30
2023-04-16T07:53:09.676Z,21.42
2023-04-16T07:55:43.012Z,22.17
2023-04-16T07:58:16.520Z,20.25
2023-04-16T08:00:51.513Z,20.17
2023-04-16T08:03:25.016Z,20.83
2023-04-16T08:05:58.500Z,20.80
2023-04-16T08:08:32.619Z,20.55
2023-04-16T08:11:06.112Z,21.80
2023-04-16T08:13:39.502Z,21.30
2023-04-16T08:16:14.881Z,20.00
2023-04-16T08:18:47.783Z,21.27
2023-04-16T08:21:21.952Z,21.50
2023-04-16T08:23:55.248Z,20.35
2023-04-16T08:26:29.553Z,19.48
2023-04-16T08:29:03.407Z,20.92
2023-04-16T08:31:38.963Z,20.40
2023-04-16T08:34:13.006Z,20.35
2023-04-16T08:36:47.488Z,20.73
2023-04-16T08:39:20.671Z,20.98
2023-04-16T08:41:56.429Z,19.63
2023-04-16T08:44:31.874Z,20.65
2023-04-16T08:47:12.144Z,19.75
2023-04-16T08:49:49.344Z,21.65
2023-04-16T08:52:25.722Z,20.85
2023-04-16T08:55:09.528Z,19.73
2023-04-16T08:57:51.128Z,21.42
2023-04-16T09:00:29.294Z,20.85
2023-04-16T09:03:06.451Z,20.20
2023-04-16T09:05:40.120Z,21.27
2023-04-16T09:08:13.739Z,23.08
2023-04-16T09:10:48.517Z,20.55
2023-04-16T09:13:23.865Z,19.30
2023-04-16T09:15:58.643Z,19.13
2023-04-16T09:18:35.176Z,21.73
2023-04-16T09:21:10.287Z,20.88
2023-04-16T09:23:43.677Z,20.10
2023-04-16T09:26:19.165Z,19.85
2023-04-16T09:28:54.249Z,20.45
2023-04-16T09:31:28.784Z,22.50
2023-04-16T09:34:11.352Z,21.40
2023-04-16T09:36:44.664Z,21.13
2023-04-16T09:39:23.997Z,21.65
2023-04-16T09:41:58.489Z,21.42
2023-04-16T09:44:39.978Z,20.75
2023-04-16T09:47:14.096Z,21.25
2023-04-16T09:49:49.115Z,20.73
2023-04-16T09:52:24.552Z,22.13
2023-04-16T09:54:59.195Z,21.30
2023-04-16T09:57:34.278Z,22.52
2023-04-16T10:00:13.929Z,21.60
2023-04-16T10:02:50.661Z,22.05
2023-04-16T10:05:27.150Z,22.48
2023-04-16T10:08:05.976Z,21.55
2023-04-16T10:10:40.172Z,21.58
2023-04-16T10:13:19.154Z,21.55
2023-04-16T10:15:53.862Z,22.90
2023-04-16T10:18:27.925Z,21.00
2023-04-16T10:21:03.544Z,21.80
2023-04-16T10:23:37.548Z,22.92
2023-04-16T10:26:12.486Z,22.65
2023-04-16T10:28:46.797Z,21.75
2023-04-16T10:31:21.196Z,23.05
2023-04-16T10:33:54.735Z,23.92
2023-04-16T10:36:31.181Z,23.92
2023-04-16T10:39:04.854Z,23.23
2023-04-16T10:41:38.149Z,22.77
2023-04-16T10:44:13.207Z,23.08
2023-04-16T10:46:46.800Z,24.23
2023-04-16T10:49:25.759Z,22.45
2023-04-16T10:52:01.804Z,25.55
2023-04-16T10:54:38.673Z,23.80
2023-04-16T10:57:13.448Z,25.00
2023-04-16T10:59:48.023Z,22.05
2023-04-16T11:02:22.168Z,22.73
2023-04-16T11:04:57.802Z,22.83
2023-04-16T11:07:40.753Z,23.90
2023-04-16T11:10:17.974Z,24.40
2023-04-16T11:12:52.204Z,23.35
2023-04-16T11:15:26.354Z,24.90
2023-04-16T11:18:00.011Z,25.47
2023-04-16T11:20:36.309Z,24.73
2023-04-16T11:23:15.550Z,27.30
2023-04-16T11:25:49.444Z,25.63
2023-04-16T11:28:22.726Z,25.37
2023-04-16T11:30:56.926Z,25.53
2023-04-16T11:33:31.493Z,23.60
2023-04-16T11:36:05.754Z,24.03
2023-04-16T11:38:44.065Z,25.13
2023-04-16T11:41:25.003Z,24.53
2023-04-16T11:43:58.958Z,23.80
2023-04-16T11:46:45.033Z,23.17
2023-04-16T11:49:18.573Z,26.27
2023-04-16T11:51:53.685Z,25.10
2023-04-16T11:54:28.783Z,26.27
2023-04-16T11:57:02.088Z,27.57
2023-04-16T11:59:35.995Z,26.33
2023-04-16T12:02:09.791Z,26.30
2023-04-16T12:04:43.709Z,28.53
2023-04-16T12:07:18.221Z,28.77
2023-04-16T12:09:54.036Z,28.20
2023-04-16T12:12:38.820Z,28.10
2023-04-16T12:15:15.263Z,26.60
2023-04-16T12:17:56.295Z,27.57
2023-04-16T12:20:30.025Z,28.73
2023-04-16T12:23:15.544Z,29.40
2023-04-16T12:26:16.100Z,30.13
2023-04-16T12:28:49.362Z,28.93
2023-04-16T12:31:40.212Z,27.83
2023-04-16T12:34:13.840Z,29.23
2023-04-16T12:36:48.536Z,30.30
2023-04-16T12:39:22.216Z,28.20
2023-04-16T12:41:57.422Z,30.13
2023-04-16T12:44:31.494Z,29.93
2023-04-16T12:47:06.590Z,31.10
2023-04-16T12:49:41.310Z,30.83
2023-04-16T12:52:16.499Z,31.70
2023-04-16T12:54:52.218Z,30.17
2023-04-16T12:57:30.158Z,31.40
2023-04-16T13:00:04.281Z,31.20
2023-04-16T13:02:38.541Z,34.00
2023-04-16T13:05:12.572Z,34.30
2023-04-16T13:07:53.025Z,33.63
2023-04-16T13:10:29.339Z,33.53
2023-04-16T13:13:04.424Z,33.60
2023-04-16T13:15:41.809Z,34.97
2023-04-16T13:18:16.536Z,34.50
2023-04-16T13:20:51.006Z,32.87
2023-04-16T13:23:24.288Z,35.67
2023-04-16T13:25:57.367Z,32.97
2023-04-16T13:28:32.086Z,36.00
2023-04-16T13:31:05.942Z,34.53
2023-04-16T13:33:40.061Z,33.27
2023-04-16T13:36:13.572Z,36.90
2023-04-16T13:38:48.185Z,36.17
2023-04-16T13:41:21.100Z,35.03
2023-04-16T13:43:57.474Z,36.70
2023-04-16T13:46:33.109Z,39.00
2023-04-16T13:49:06.112Z,34.97
2023-04-16T13:51:39.557Z,38.23
2023-04-16T13:54:13.165Z,36.87
2023-04-16T13:56:46.568Z,37.73
2023-04-16T13:59:23.023Z,40.07
2023-04-16T14:01:57.915Z,39.33
2023-04-16T14:04:40.134Z,36.47
2023-04-16T14:07:16.211Z,38.60
2023-04-16T14:09:49.465Z,38.10
2023-04-16T14:12:22.414Z,39.47
2023-04-16T14:14:57.091Z,38.03
2023-04-16T14:17:31.379Z,37.03
2023-04-16T14:20:07.205Z,37.00
2023-04-16T14:22:43.346Z,38.80
2023-04-16T14:25:16.252Z,37.73
2023-04-16T14:27:49.765Z,38.63
2023-04-16T14:30:24.667Z,38.53
2023-04-16T14:39:02.974Z,39.33
2023-04-16T14:42:00.117Z,38.47
2023-04-16T14:44:48.191Z,41.73
2023-04-16T14:47:32.107Z,38.40
2023-04-16T14:50:18.666Z,35.70
2023-04-16T14:53:06.702Z,37.70
2023-04-16T14:55:47.359Z,38.23
2023-04-16T14:58:26.200Z,38.63
2023-04-16T15:02:20.347Z,38.90
2023-04-16T15:05:04.845Z,38.13
2023-04-16T15:08:05.300Z,38.93
2023-04-16T15:10:55.615Z,38.90
2023-04-16T15:13:44.351Z,37.07
2023-04-16T15:16:52.786Z,39.30
2023-04-16T15:19:31.864Z,38.07
2023-04-16T15:22:14.720Z,37.67
2023-04-16T15:24:51.379Z,37.10
2023-04-16T15:27:46.685Z,38.33
2023-04-16T15:30:22.376Z,36.07
2023-04-16T15:32:56.824Z,37.27
2023-04-16T15:35:29.679Z,38.60
2023-04-16T15:38:09.659Z,38.47
2023-04-16T15:41:01.549Z,37.67
2023-04-16T15:43:48.963Z,38.60
2023-04-16T15:46:36.627Z,39.07
2023-04-16T15:49:17.459Z,40.40
2023-04-16T15:52:05.191Z,41.27
2023-04-16T15:55:11.101Z,38.10
2023-04-16T15:57:53.641Z,38.83
2023-04-16T16:00:34.173Z,40.23
2023-04-16T16:03:08.289Z,41.90
2023-04-16T16:05:42.004Z,42.53
2023-04-16T16:08:16.595Z,41.80
2023-04-16T16:11:03.180Z,43.73
2023-04-16T16:13:46.891Z,43.87
2023-04-16T16:16:32.561Z,44.73
2023-04-16T16:19:13.427Z,43.23
2023-04-16T16:22:03.933Z,43.73
2023-04-16T16:24:57.571Z,45.23
2023-04-16T16:27:49.062Z,44.10
2023-04-16T16:30:34.064Z,43.27
2023-04-16T16:33:11.259Z,42.77
2023-04-16T16:35:46.914Z,43.67
2023-04-16T16:38:26.217Z,43.47
2023-04-16T16:41:04.057Z,44.47
2023-04-16T16:44:20.833Z,44.50
2023-04-16T16:47:18.630Z,46.97
2023-04-16T16:50:32.021Z,47.53
2023-04-16T16:53:29.868Z,48.50
2023-04-16T16:56:18.377Z,46.53
2023-04-16T16:59:03.559Z,48.70
2023-04-16T17:01:48.887Z,47.50
2023-04-16T17:04:45.159Z,49.53
2023-04-16T17:07:40.542Z,46.50
2023-04-16T17:10:50.018Z,46.17
2023-04-16T17:13:26.481Z,45.33
2023-04-16T17:16:50.960Z,45.20
2023-04-16T17:19:53.927Z,47.10
2023-04-16T17:28:46.195Z,51.67
2023-04-16T17:31:40.621Z,51.93
2023-04-16T17:34:25.252Z,49.10
2023-04-16T17:37:00.369Z,50.47
2023-04-16T17:39:42.456Z,55.60
2023-04-16T17:42:27.618Z,56.93
2023-04-16T17:45:03.413Z,53.87
2023-04-16T17:47:42.480Z,59.10
2023-04-16T17:50:36.469Z,59.57
2023-04-16T17:53:16.548Z,59.40
2023-04-16T17:56:11.562Z,61.70
2023-04-16T17:58:50.972Z,61.93
2023-04-16T18:01:34.689Z,60.23
2023-04-16T18:04:12.156Z,63.37
2023-04-16T18:06:45.650Z,61.70
2023-04-16T18:09:18.802Z,65.27
2023-04-16T18:11:51.996Z,64.00
2023-04-16T18:14:25.332Z,62.90
2023-04-16T18:16:59.778Z,61.63
2023-04-16T18:19:35.441Z,61.80
2023-04-16T18:22:11.126Z,61.07
2023-04-16T18:24:45.277Z,62.97
2023-04-16T18:27:18.504Z,62.50
2023-04-16T18:29:51.492Z,63.80
2023-04-16T18:32:24.566Z,63.87
2023-04-16T18:34:59.260Z,61.57
2023-04-16T18:37:32.344Z,62.97
2023-04-16T18:40:07.138Z,62.40
2023-04-16T18:42:41.427Z,61.30
2023-04-16T18:48:07.508Z,64.97
2023-04-16T18:51:05.659Z,63.70
2023-04-16T18:53:57.323Z,63.53
2023-04-16T18:56:38.578Z,63.70
2023-04-16T18:59:12.357Z,62.53
2023-04-16T19:01:45.613Z,65.23
2023-04-16T19:04:19.751Z,62.70
2023-04-16T19:06:56.335Z,63.33
2023-04-16T19:09:30.765Z,63.23
2023-04-16T19:12:04.893Z,64.40
2023-04-16T19:14:37.718Z,60.77
2023-04-16T19:17:10.846Z,62.90
2023-04-16T19:19:44.042Z,65.97
2023-04-16T19:22:27.506Z,61.47
2023-04-16T19:25:03.819Z,61.20
2023-04-16T19:27:44.372Z,60.60
2023-04-16T19:30:18.501Z,61.53
2023-04-16T19:33:00.896Z,63.57
2023-04-16T19:35:35.113Z,66.33
2023-04-16T19:38:15.319Z,68.23
2023-04-16T19:40:55.766Z,65.00
2023-04-16T19:43:35.458Z,62.43
2023-04-16T19:46:13.658Z,62.83
2023-04-16T19:48:50.026Z,58.20
2023-04-16T19:51:25.477Z,57.63
2023-04-16T19:54:03.852Z,59.97
2023-04-16T19:56:41.136Z,62.80
2023-04-16T19:59:24.205Z,66.50
2023-04-16T20:02:05.460Z,66.67
2023-04-16T20:04:41.480Z,65.30
2023-04-16T20:07:18.508Z,63.93
2023-04-16T20:09:57.009Z,61.27
2023-04-16T20:12:34.194Z,62.67
2023-04-16T20:15:13.542Z,62.07
2023-04-16T20:17:48.935Z,66.90
2023-04-16T20:20:28.161Z,66.43
2023-04-16T20:23:08.632Z,67.60
2023-04-16T20:25:56.910Z,69.80
2023-04-16T20:28:36.816Z,71.07
2023-04-16T20:31:15.561Z,70.57
2023-04-16T20:33:49.704Z,72.80
2023-04-16T20:36:24.264Z,73.03
2023-04-16T20:39:00.724Z,70.30
2023-04-16T20:41:44.355Z,71.60
2023-04-16T20:44:19.310Z,69.93
2023-04-16T20:46:57.495Z,69.63
2023-04-16T20:49:36.977Z,67.33
2023-04-16T20:52:12.855Z,66.30
2023-04-16T20:54:48.269Z,64.37
2023-04-16T20:57:38.192Z,66.53
2023-04-16T21:00:13.272Z,66.60
2023-04-16T21:02:50.414Z,61.47
2023-04-16T21:05:25.874Z,62.20
2023-04-16T21:08:00.335Z,62.60
2023-04-16T21:10:33.986Z,63.30
2023-04-16T21:13:15.844Z,62.47
2023-04-16T21:15:50.453Z,57.17
2023-04-16T21:18:32.011Z,56.63
2023-04-16T21:21:11.394Z,61.47
2023-04-16T21:23:48.632Z,59.97
2023-04-16T21:26:23.936Z,57.93
2023-04-16T21:29:09.141Z,58.77
2023-04-16T21:31:43.487Z,61.73
2023-04-16T21:34:21.873Z,58.17
2023-04-16T21:36:55.579Z,58.80
2023-04-16T21:39:32.071Z,59.93
2023-04-16T21:42:08.077Z,60.10
2023-04-16T21:44:48.177Z,59.83
2023-04-16T21:47:26.399Z,62.23
2023-04-16T21:50:00.519Z,61.13
2023-04-16T21:52:36.683Z,59.57
2023-04-16T21:55:14.310Z,58.07
2023-04-16T21:57:52.802Z,57.13
2023-04-16T22:00:34.331Z,57.37
2023-04-16T22:03:14.913Z,56.83
2023-04-16T22:05:50.032Z,58.73
2023-04-16T22:08:30.701Z,59.07
2023-04-16T22:11:08.947Z,59.10
2023-04-16T22:13:50.270Z,59.00
2023-04-16T22:16:42.657Z,60.93
2023-04-16T22:19:25.363Z,62.00
2023-04-16T22:22:03.253Z,62.63
2023-04-16T22:24:50.606Z,61.77
2023-04-16T22:27:30.026Z,59.47
2023-04-16T22:30:06.032Z,58.37
2023-04-16T22:32:43.358Z,58.73
2023-04-16T22:35:20.471Z,57.80
2023-04-16T22:38:16.113Z,54.27
2023-04-16T22:40:58.422Z,53.10
2023-04-16T22:43:36.442Z,52.83
2023-04-16T22:46:12.726Z,51.30
2023-04-16T22:48:54.052Z,50.33
2023-04-16T22:51:34.368Z,50.17
2023-04-16T22:54:08.676Z,49.80
2023-04-16T22:56:46.211Z,50.63
2023-04-16T22:59:22.102Z,49.40
2023-04-16T23:01:55.724Z,49.47
2023-04-16T23:04:31.838Z,47.90
2023-04-16T23:07:05.296Z,50.20
2023-04-16T23:09:42.197Z,48.10
2023-04-16T23:12:15.765Z,49.40
2023-04-16T23:14:50.646Z,48.37
2023-04-16T23:37:13.935Z,44.03
2023-04-16T23:39:57.731Z,44.00
2023-04-16T23:42:32.177Z,43.22
2023-04-16T23:45:36.023Z,42.25
2023-04-16T23:48:09.927Z,42.38
2023-04-16T23:50:43.303Z,39.17
2023-04-16T23:53:16.437Z,40.75
2023-04-16T23:55:53.786Z,40.78
2023-04-16T23:58:29.643Z,40.42
